Weather at Siem Reap International Airport

Public forecast

Using degrees Celsius for public forecast. Weather courtesy of forecast.io.

Current aviation weather report (METAR) for Siem Reap International Airport

Retrieved 2021/01/21 07:30 UTC (0 seconds ago):

VDSR 210730Z VRB02KT 9999 SCT017 31/16 Q1008

Aviation forecast (TAF) for Siem Reap International Airport

Retrieved 2021/01/21 06:00 UTC (1 hour ago):

TAF VDPP 210500Z 2106/2124 03009KT 9999 SCT017 TAF VDSR 210500Z 2106/2124 18007KT 9999 SCT017